Afton, Virginia
Current Conditions -  °F | °C
As of 6:55 AM on Friday 24 Oct 2014 (Local Time) from KW13 Reporting Station
Clear Clear  
Wind Chill: 43°   Ceiling: Unl
Heat Index: 46°   Visibility: 10mi
Dew Point: 39°   Wind: 7mph
Humidity: 75%   Direction: 230°SW
Pressure: 30.04"   Gusts: NA
Location:  38°N, 78.78°W
Report Text: KW13 241055Z AUTO 23006KT 10SM CLR 08/04 A3004 RMK AO1 T00800038
Loading
Personal Weather Stations






























Interactive Weather Map
Tropical Storm Tracking
New forecast layout! Learn more

10-Day Weather Forecast

Advertisements
Track Severe Weather on mobile